sensor_id;sensor_type;location;lat;lon;timestamp;pressure;altitude;pressure_sealevel;temperature;humidity
48210;BME280;33999;52.252;9.616;2022-09-19T00:02:50;100125.13;;;9.08;100.00
48210;BME280;33999;52.252;9.616;2022-09-19T00:05:52;100130.25;;;9.11;100.00
48210;BME280;33999;52.252;9.616;2022-09-19T00:08:55;100138.06;;;9.14;100.00
48210;BME280;33999;52.252;9.616;2022-09-19T00:11:57;100135.72;;;9.10;100.00
48210;BME280;33999;52.252;9.616;2022-09-19T00:14:58;100139.03;;;9.13;100.00
48210;BME280;33999;52.252;9.616;2022-09-19T00:18:02;100141.97;;;9.10;100.00
48210;BME280;33999;52.252;9.616;2022-09-19T00:21:05;100148.41;;;9.08;100.00
48210;BME280;33999;52.252;9.616;2022-09-19T00:24:09;100145.72;;;9.08;100.00
48210;BME280;33999;52.252;9.616;2022-09-19T00:27:30;100150.84;;;9.11;100.00
48210;BME280;33999;52.252;9.616;2022-09-19T00:30:37;100154.72;;;9.07;100.00
48210;BME280;33999;52.252;9.616;2022-09-19T00:33:39;100158.38;;;9.06;100.00
48210;BME280;33999;52.252;9.616;2022-09-19T00:36:42;100163.50;;;9.09;100.00
48210;BME280;33999;52.252;9.616;2022-09-19T00:39:43;100165.56;;;9.05;100.00
48210;BME280;33999;52.252;9.616;2022-09-19T00:42:45;100167.50;;;9.03;100.00
48210;BME280;33999;52.252;9.616;2022-09-19T00:45:47;100166.66;;;9.03;100.00
48210;BME280;33999;52.252;9.616;2022-09-19T00:48:52;100179.06;;;9.04;100.00
48210;BME280;33999;52.252;9.616;2022-09-19T00:51:59;100179.81;;;9.06;100.00
48210;BME280;33999;52.252;9.616;2022-09-19T00:55:02;100189.69;;;9.05;100.00
48210;BME280;33999;52.252;9.616;2022-09-19T00:58:13;100188.94;;;9.03;100.00
48210;BME280;33999;52.252;9.616;2022-09-19T01:01:15;100194.28;;;9.03;100.00
48210;BME280;33999;52.252;9.616;2022-09-19T01:04:19;100196.72;;;9.06;100.00
48210;BME280;33999;52.252;9.616;2022-09-19T01:07:43;100196.63;;;9.08;100.00
48210;BME280;33999;52.252;9.616;2022-09-19T01:10:57;100201.84;;;9.09;100.00
48210;BME280;33999;52.252;9.616;2022-09-19T01:17:40;100211.97;;;9.06;100.00
48210;BME280;33999;52.252;9.616;2022-09-19T01:21:27;100218.91;;;9.08;100.00
48210;BME280;33999;52.252;9.616;2022-09-19T01:28:09;100218.06;;;9.08;100.00
48210;BME280;33999;52.252;9.616;2022-09-19T01:31:29;100216.34;;;9.07;100.00
48210;BME280;33999;52.252;9.616;2022-09-19T01:34:39;100217.31;;;9.06;100.00
48210;BME280;33999;52.252;9.616;2022-09-19T01:37:50;100224.72;;;9.02;100.00
48210;BME280;33999;52.252;9.616;2022-09-19T01:40:53;100228.03;;;9.06;100.00
48210;BME280;33999;52.252;9.616;2022-09-19T01:44:03;100234.47;;;9.03;100.00
48210;BME280;33999;52.252;9.616;2022-09-19T01:54:05;100254.75;;;8.95;100.00
48210;BME280;33999;52.252;9.616;2022-09-19T02:00:36;100256.28;;;8.86;100.00
48210;BME280;33999;52.252;9.616;2022-09-19T02:04:13;100264.44;;;8.84;100.00
48210;BME280;33999;52.252;9.616;2022-09-19T02:07:27;100267.25;;;8.83;100.00
48210;BME280;33999;52.252;9.616;2022-09-19T02:10:51;100266.59;;;8.79;100.00
48210;BME280;33999;52.252;9.616;2022-09-19T02:14:04;100269.16;;;8.81;100.00
48210;BME280;33999;52.252;9.616;2022-09-19T02:17:14;100278.06;;;8.81;100.00
48210;BME280;33999;52.252;9.616;2022-09-19T02:20:32;100278.50;;;8.75;100.00
48210;BME280;33999;52.252;9.616;2022-09-19T02:23:42;100284.81;;;8.74;100.00
48210;BME280;33999;52.252;9.616;2022-09-19T02:26:49;100285.69;;;8.75;100.00
48210;BME280;33999;52.252;9.616;2022-09-19T02:30:00;100282.78;;;8.78;100.00
48210;BME280;33999;52.252;9.616;2022-09-19T02:33:10;100293.28;;;8.81;100.00
48210;BME280;33999;52.252;9.616;2022-09-19T02:39:30;100293.38;;;8.79;100.00
48210;BME280;33999;52.252;9.616;2022-09-19T02:42:52;100299.38;;;8.83;100.00
48210;BME280;33999;52.252;9.616;2022-09-19T02:46:05;100308.16;;;8.85;100.00
48210;BME280;33999;52.252;9.616;2022-09-19T02:49:13;100310.94;;;8.83;100.00
48210;BME280;33999;52.252;9.616;2022-09-19T02:52:30;100311.41;;;8.77;100.00
48210;BME280;33999;52.252;9.616;2022-09-19T02:55:42;100318.34;;;8.80;100.00
48210;BME280;33999;52.252;9.616;2022-09-19T02:58:53;100319.63;;;8.74;100.00
48210;BME280;33999;52.252;9.616;2022-09-19T03:02:20;100323.28;;;8.73;100.00
48210;BME280;33999;52.252;9.616;2022-09-19T03:05:28;100318.47;;;8.65;100.00
48210;BME280;33999;52.252;9.616;2022-09-19T03:08:32;100321.25;;;8.64;100.00
48210;BME280;33999;52.252;9.616;2022-09-19T03:11:42;100318.56;;;8.64;100.00
48210;BME280;33999;52.252;9.616;2022-09-19T03:14:49;100326.41;;;8.67;100.00
48210;BME280;33999;52.252;9.616;2022-09-19T03:18:05;100330.78;;;8.68;100.00
48210;BME280;33999;52.252;9.616;2022-09-19T03:21:12;100340.00;;;8.64;100.00
48210;BME280;33999;52.252;9.616;2022-09-19T03:24:15;100330.88;;;8.66;100.00
48210;BME280;33999;52.252;9.616;2022-09-19T03:27:18;100327.88;;;8.71;100.00
48210;BME280;33999;52.252;9.616;2022-09-19T03:30:20;100335.59;;;8.76;100.00
48210;BME280;33999;52.252;9.616;2022-09-19T03:33:22;100327.47;;;8.77;100.00
48210;BME280;33999;52.252;9.616;2022-09-19T03:36:26;100329.25;;;8.77;100.00
48210;BME280;33999;52.252;9.616;2022-09-19T03:39:29;100335.59;;;8.76;100.00
48210;BME280;33999;52.252;9.616;2022-09-19T03:42:30;100332.81;;;8.77;100.00
48210;BME280;33999;52.252;9.616;2022-09-19T03:45:38;100338.91;;;8.79;100.00
48210;BME280;33999;52.252;9.616;2022-09-19T03:48:42;100344.78;;;8.84;100.00
48210;BME280;33999;52.252;9.616;2022-09-19T03:51:47;100342.00;;;8.86;100.00
48210;BME280;33999;52.252;9.616;2022-09-19T03:54:51;100348.34;;;8.85;100.00
48210;BME280;33999;52.252;9.616;2022-09-19T03:57:52;100352.50;;;8.89;100.00
48210;BME280;33999;52.252;9.616;2022-09-19T04:00:55;100349.47;;;8.93;100.00
48210;BME280;33999;52.252;9.616;2022-09-19T04:03:57;100341.78;;;8.89;100.00
48210;BME280;33999;52.252;9.616;2022-09-19T04:15:30;100361.91;;;8.95;100.00
48210;BME280;33999;52.252;9.616;2022-09-19T04:18:35;100373.50;;;8.95;100.00
48210;BME280;33999;52.252;9.616;2022-09-19T04:21:38;100372.28;;;8.99;100.00
48210;BME280;33999;52.252;9.616;2022-09-19T04:25:04;100372.06;;;9.02;100.00
48210;BME280;33999;52.252;9.616;2022-09-19T04:28:17;100368.81;;;9.10;100.00
48210;BME280;33999;52.252;9.616;2022-09-19T04:31:20;100377.75;;;9.10;100.00
48210;BME280;33999;52.252;9.616;2022-09-19T04:34:25;100373.84;;;9.14;100.00
48210;BME280;33999;52.252;9.616;2022-09-19T04:37:27;100381.69;;;9.18;100.00
48210;BME280;33999;52.252;9.616;2022-09-19T04:40:46;100377.19;;;9.18;100.00
48210;BME280;33999;52.252;9.616;2022-09-19T04:43:48;100388.53;;;9.22;100.00
48210;BME280;33999;52.252;9.616;2022-09-19T04:47:14;100393.91;;;9.22;100.00
48210;BME280;33999;52.252;9.616;2022-09-19T04:50:16;100394.66;;;9.24;100.00
48210;BME280;33999;52.252;9.616;2022-09-19T04:53:28;100395.59;;;9.23;100.00
48210;BME280;33999;52.252;9.616;2022-09-19T04:56:33;100392.06;;;9.22;100.00
48210;BME280;33999;52.252;9.616;2022-09-19T04:59:35;100404.28;;;9.26;100.00
48210;BME280;33999;52.252;9.616;2022-09-19T05:02:38;100407.91;;;9.25;100.00
48210;BME280;33999;52.252;9.616;2022-09-19T05:05:46;100408.78;;;9.26;100.00
48210;BME280;33999;52.252;9.616;2022-09-19T05:09:00;100414.16;;;9.26;100.00
48210;BME280;33999;52.252;9.616;2022-09-19T05:12:06;100417.91;;;9.23;100.00
48210;BME280;33999;52.252;9.616;2022-09-19T05:15:13;100413.28;;;9.25;100.00
48210;BME280;33999;52.252;9.616;2022-09-19T05:18:18;100418.63;;;9.25;100.00
48210;BME280;33999;52.252;9.616;2022-09-19T05:21:25;100417.03;;;9.23;100.00
48210;BME280;33999;52.252;9.616;2022-09-19T05:24:29;100419.53;;;9.26;100.00
48210;BME280;33999;52.252;9.616;2022-09-19T05:27:32;100427.44;;;9.27;100.00
48210;BME280;33999;52.252;9.616;2022-09-19T05:30:45;100428.19;;;9.29;100.00
48210;BME280;33999;52.252;9.616;2022-09-19T05:33:47;100429.88;;;9.30;100.00
48210;BME280;33999;52.252;9.616;2022-09-19T05:36:54;100425.41;;;9.31;100.00
48210;BME280;33999;52.252;9.616;2022-09-19T05:40:16;100436.66;;;9.36;100.00
48210;BME280;33999;52.252;9.616;2022-09-19T05:43:32;100438.88;;;9.42;100.00
48210;BME280;33999;52.252;9.616;2022-09-19T05:46:36;100441.56;;;9.42;100.00
48210;BME280;33999;52.252;9.616;2022-09-19T05:49:43;100443.78;;;9.48;100.00
48210;BME280;33999;52.252;9.616;2022-09-19T05:52:52;100448.19;;;9.49;100.00
48210;BME280;33999;52.252;9.616;2022-09-19T05:56:12;100454.06;;;9.54;100.00
48210;BME280;33999;52.252;9.616;2022-09-19T05:59:25;100462.72;;;9.58;100.00
48210;BME280;33999;52.252;9.616;2022-09-19T06:02:32;100463.25;;;9.63;100.00
48210;BME280;33999;52.252;9.616;2022-09-19T06:06:11;100472.66;;;9.69;100.00
48210;BME280;33999;52.252;9.616;2022-09-19T06:09:33;100472.09;;;9.76;100.00
48210;BME280;33999;52.252;9.616;2022-09-19T06:16:58;100482.16;;;10.10;100.00
48210;BME280;33999;52.252;9.616;2022-09-19T06:25:20;100488.59;;;10.55;100.00
48210;BME280;33999;52.252;9.616;2022-09-19T06:29:45;100499.84;;;10.60;100.00
48210;BME280;33999;52.252;9.616;2022-09-19T06:34:05;100496.94;;;10.63;100.00
48210;BME280;33999;52.252;9.616;2022-09-19T06:38:16;100492.06;;;10.69;100.00
48210;BME280;33999;52.252;9.616;2022-09-19T06:41:51;100505.13;;;10.73;100.00
48210;BME280;33999;52.252;9.616;2022-09-19T06:50:53;100509.59;;;10.97;100.00
48210;BME280;33999;52.252;9.616;2022-09-19T06:54:51;100505.91;;;10.98;100.00
48210;BME280;33999;52.252;9.616;2022-09-19T06:57:54;100514.38;;;11.04;100.00
48210;BME280;33999;52.252;9.616;2022-09-19T07:01:00;100513.75;;;11.12;100.00
48210;BME280;33999;52.252;9.616;2022-09-19T07:04:02;100521.09;;;11.21;100.00
48210;BME280;33999;52.252;9.616;2022-09-19T07:07:29;100514.84;;;11.21;99.90
48210;BME280;33999;52.252;9.616;2022-09-19T07:10:33;100521.72;;;11.25;99.85
48210;BME280;33999;52.252;9.616;2022-09-19T07:13:36;100517.78;;;11.29;99.43
48210;BME280;33999;52.252;9.616;2022-09-19T07:16:44;100519.75;;;11.38;99.80
48210;BME280;33999;52.252;9.616;2022-09-19T07:19:46;100522.44;;;11.38;99.49
48210;BME280;33999;52.252;9.616;2022-09-19T07:23:27;100526.13;;;11.48;99.61
48210;BME280;33999;52.252;9.616;2022-09-19T07:26:47;100527.19;;;11.57;99.18
48210;BME280;33999;52.252;9.616;2022-09-19T07:29:52;100531.00;;;11.66;98.95
48210;BME280;33999;52.252;9.616;2022-09-19T07:32:55;100527.06;;;11.70;98.64
48210;BME280;33999;52.252;9.616;2022-09-19T07:35:59;100533.91;;;11.74;98.17
48210;BME280;33999;52.252;9.616;2022-09-19T07:39:05;100539.63;;;11.81;97.54
48210;BME280;33999;52.252;9.616;2022-09-19T07:42:33;100539.19;;;11.87;97.45
48210;BME280;33999;52.252;9.616;2022-09-19T07:45:56;100550.19;;;11.84;97.01
48210;BME280;33999;52.252;9.616;2022-09-19T07:49:20;100558.09;;;11.85;96.98
48210;BME280;33999;52.252;9.616;2022-09-19T07:52:44;100552.13;;;11.82;96.73
48210;BME280;33999;52.252;9.616;2022-09-19T07:55:56;100565.97;;;11.88;96.66
48210;BME280;33999;52.252;9.616;2022-09-19T07:58:59;100568.03;;;11.85;96.71
48210;BME280;33999;52.252;9.616;2022-09-19T08:02:19;100575.88;;;11.88;98.37
48210;BME280;33999;52.252;9.616;2022-09-19T08:05:21;100569.41;;;11.90;98.61
48210;BME280;33999;52.252;9.616;2022-09-19T08:08:24;100569.03;;;11.95;97.82
48210;BME280;33999;52.252;9.616;2022-09-19T08:11:26;100573.19;;;11.99;97.31
48210;BME280;33999;52.252;9.616;2022-09-19T08:14:28;100577.81;;;12.08;96.79
48210;BME280;33999;52.252;9.616;2022-09-19T08:17:30;100583.56;;;12.15;97.33
48210;BME280;33999;52.252;9.616;2022-09-19T08:20:35;100590.38;;;12.19;97.66
48210;BME280;33999;52.252;9.616;2022-09-19T08:23:37;100591.13;;;12.21;96.51
48210;BME280;33999;52.252;9.616;2022-09-19T08:26:43;100593.69;;;12.23;96.41
48210;BME280;33999;52.252;9.616;2022-09-19T08:29:46;100601.41;;;12.27;95.92
48210;BME280;33999;52.252;9.616;2022-09-19T08:32:50;100596.25;;;12.24;95.95
48210;BME280;33999;52.252;9.616;2022-09-19T08:35:53;100599.69;;;12.26;95.92
48210;BME280;33999;52.252;9.616;2022-09-19T08:39:02;100609.09;;;12.32;95.68
48210;BME280;33999;52.252;9.616;2022-09-19T08:42:29;100606.03;;;12.36;94.60
48210;BME280;33999;52.252;9.616;2022-09-19T08:46:00;100607.50;;;12.40;94.09
48210;BME280;33999;52.252;9.616;2022-09-19T08:49:13;100619.69;;;12.45;94.49
48210;BME280;33999;52.252;9.616;2022-09-19T08:55:32;100623.34;;;12.55;94.21
48210;BME280;33999;52.252;9.616;2022-09-19T08:58:44;100622.34;;;12.67;93.91
48210;BME280;33999;52.252;9.616;2022-09-19T09:01:59;100618.41;;;12.71;93.92
48210;BME280;33999;52.252;9.616;2022-09-19T09:13:13;100623.78;;;13.24;92.01
48210;BME280;33999;52.252;9.616;2022-09-19T09:23:23;100626.50;;;13.45;86.64
48210;BME280;33999;52.252;9.616;2022-09-19T09:26:49;100625.69;;;13.55;88.25
48210;BME280;33999;52.252;9.616;2022-09-19T09:30:13;100623.25;;;13.52;88.21
48210;BME280;33999;52.252;9.616;2022-09-19T09:33:30;100624.31;;;13.60;89.13
48210;BME280;33999;52.252;9.616;2022-09-19T09:36:39;100628.78;;;13.71;87.35
48210;BME280;33999;52.252;9.616;2022-09-19T09:39:51;100623.91;;;13.65;87.50
48210;BME280;33999;52.252;9.616;2022-09-19T09:43:07;100622.81;;;13.46;86.80
48210;BME280;33999;52.252;9.616;2022-09-19T09:46:21;100632.41;;;13.39;84.40
48210;BME280;33999;52.252;9.616;2022-09-19T09:49:27;100626.88;;;13.62;85.64
48210;BME280;33999;52.252;9.616;2022-09-19T09:52:56;100626.53;;;13.76;85.02
48210;BME280;33999;52.252;9.616;2022-09-19T09:56:16;100629.16;;;13.97;84.09
48210;BME280;33999;52.252;9.616;2022-09-19T09:59:47;100621.13;;;14.17;82.34
48210;BME280;33999;52.252;9.616;2022-09-19T10:03:22;100615.88;;;14.25;83.40
48210;BME280;33999;52.252;9.616;2022-09-19T10:07:13;100611.72;;;14.11;79.19
48210;BME280;33999;52.252;9.616;2022-09-19T10:10:21;100619.53;;;14.04;80.73
48210;BME280;33999;52.252;9.616;2022-09-19T10:13:24;100613.03;;;14.26;80.41
48210;BME280;33999;52.252;9.616;2022-09-19T10:16:33;100607.56;;;14.47;80.17
48210;BME280;33999;52.252;9.616;2022-09-19T10:19:41;100610.56;;;14.64;77.42
48210;BME280;33999;52.252;9.616;2022-09-19T10:22:43;100611.44;;;14.84;76.55
48210;BME280;33999;52.252;9.616;2022-09-19T10:25:48;100611.88;;;14.98;73.80
48210;BME280;33999;52.252;9.616;2022-09-19T10:28:53;100613.84;;;14.96;76.15
48210;BME280;33999;52.252;9.616;2022-09-19T10:32:07;100616.72;;;14.75;77.78
48210;BME280;33999;52.252;9.616;2022-09-19T10:35:36;100611.00;;;14.59;80.19
48210;BME280;33999;52.252;9.616;2022-09-19T10:38:56;100606.53;;;14.39;84.50
48210;BME280;33999;52.252;9.616;2022-09-19T10:42:19;100604.97;;;14.46;84.28
48210;BME280;33999;52.252;9.616;2022-09-19T10:45:29;100602.72;;;14.51;83.92
48210;BME280;33999;52.252;9.616;2022-09-19T10:48:41;100603.84;;;14.48;83.49
48210;BME280;33999;52.252;9.616;2022-09-19T10:51:54;100616.97;;;14.53;83.22
48210;BME280;33999;52.252;9.616;2022-09-19T10:54:59;100606.97;;;14.44;80.40
48210;BME280;33999;52.252;9.616;2022-09-19T10:58:15;100610.22;;;14.38;79.40
48210;BME280;33999;52.252;9.616;2022-09-19T11:01:25;100596.41;;;14.31;80.68
48210;BME280;33999;52.252;9.616;2022-09-19T11:04:31;100607.34;;;14.20;83.10
48210;BME280;33999;52.252;9.616;2022-09-19T11:07:48;100601.34;;;14.16;79.67
48210;BME280;33999;52.252;9.616;2022-09-19T11:10:57;100609.63;;;14.24;80.86
48210;BME280;33999;52.252;9.616;2022-09-19T11:14:28;100598.59;;;14.56;82.31
48210;BME280;33999;52.252;9.616;2022-09-19T11:17:50;100609.16;;;14.69;77.79
48210;BME280;33999;52.252;9.616;2022-09-19T11:21:12;100611.84;;;14.60;77.32
48210;BME280;33999;52.252;9.616;2022-09-19T11:24:41;100618.06;;;14.41;83.21
48210;BME280;33999;52.252;9.616;2022-09-19T11:28:04;100617.31;;;14.19;85.27
48210;BME280;33999;52.252;9.616;2022-09-19T11:31:43;100611.72;;;14.11;83.21
48210;BME280;33999;52.252;9.616;2022-09-19T11:35:26;100601.63;;;14.13;83.25
48210;BME280;33999;52.252;9.616;2022-09-19T11:38:45;100613.19;;;13.84;75.64
48210;BME280;33999;52.252;9.616;2022-09-19T11:42:18;100602.06;;;13.68;74.86
48210;BME280;33999;52.252;9.616;2022-09-19T11:45:32;100600.78;;;13.72;73.15
48210;BME280;33999;52.252;9.616;2022-09-19T11:56:04;100578.88;;;14.16;73.94
48210;BME280;33999;52.252;9.616;2022-09-19T12:09:55;100575.97;;;15.06;75.04
48210;BME280;33999;52.252;9.616;2022-09-19T12:16:24;100583.34;;;15.23;77.94
48210;BME280;33999;52.252;9.616;2022-09-19T12:19:37;100588.91;;;15.32;76.22
48210;BME280;33999;52.252;9.616;2022-09-19T12:22:47;100597.44;;;15.37;75.94
48210;BME280;33999;52.252;9.616;2022-09-19T12:25:53;100610.38;;;15.23;74.61
48210;BME280;33999;52.252;9.616;2022-09-19T12:29:30;100600.59;;;15.03;74.80
48210;BME280;33999;52.252;9.616;2022-09-19T12:35:49;100601.97;;;14.29;75.83
48210;BME280;33999;52.252;9.616;2022-09-19T12:38:54;100593.09;;;14.08;77.83
48210;BME280;33999;52.252;9.616;2022-09-19T12:42:32;100591.72;;;13.83;77.05
48210;BME280;33999;52.252;9.616;2022-09-19T12:46:03;100590.81;;;13.73;79.19
48210;BME280;33999;52.252;9.616;2022-09-19T12:52:52;100570.50;;;13.68;80.69
48210;BME280;33999;52.252;9.616;2022-09-19T12:56:06;100581.59;;;13.65;80.99
48210;BME280;33999;52.252;9.616;2022-09-19T13:02:29;100588.22;;;13.61;81.34
48210;BME280;33999;52.252;9.616;2022-09-19T13:05:36;100610.81;;;13.60;82.33
48210;BME280;33999;52.252;9.616;2022-09-19T13:08:47;100616.41;;;13.68;83.71
48210;BME280;33999;52.252;9.616;2022-09-19T13:11:57;100616.69;;;13.75;84.52
48210;BME280;33999;52.252;9.616;2022-09-19T13:15:11;100627.69;;;13.83;84.96
48210;BME280;33999;52.252;9.616;2022-09-19T13:18:16;100626.41;;;13.87;84.66
48210;BME280;33999;52.252;9.616;2022-09-19T13:21:42;100643.28;;;13.80;84.20
48210;BME280;33999;52.252;9.616;2022-09-19T13:25:03;100648.06;;;13.66;84.21
48210;BME280;33999;52.252;9.616;2022-09-19T13:38:20;100646.44;;;13.33;84.82
48210;BME280;33999;52.252;9.616;2022-09-19T13:41:39;100656.50;;;13.31;86.20
48210;BME280;33999;52.252;9.616;2022-09-19T13:44:47;100658.25;;;13.32;86.32
48210;BME280;33999;52.252;9.616;2022-09-19T13:48:19;100655.28;;;13.35;86.42
48210;BME280;33999;52.252;9.616;2022-09-19T13:51:42;100655.72;;;13.40;85.90
48210;BME280;33999;52.252;9.616;2022-09-19T13:58:34;100650.53;;;13.48;85.61
48210;BME280;33999;52.252;9.616;2022-09-19T14:01:39;100653.50;;;13.45;86.57
48210;BME280;33999;52.252;9.616;2022-09-19T14:05:02;100640.66;;;13.38;86.64
48210;BME280;33999;52.252;9.616;2022-09-19T14:08:05;100638.16;;;13.46;87.26
48210;BME280;33999;52.252;9.616;2022-09-19T14:11:30;100631.03;;;13.66;86.74
48210;BME280;33999;52.252;9.616;2022-09-19T14:21:11;100632.25;;;14.33;81.57
48210;BME280;33999;52.252;9.616;2022-09-19T14:24:43;100655.59;;;14.44;75.71
48210;BME280;33999;52.252;9.616;2022-09-19T14:28:29;100647.81;;;14.50;74.58
48210;BME280;33999;52.252;9.616;2022-09-19T14:31:53;100654.56;;;14.66;74.16
48210;BME280;33999;52.252;9.616;2022-09-19T14:42:28;100672.91;;;15.11;68.89
48210;BME280;33999;52.252;9.616;2022-09-19T14:48:54;100671.94;;;15.21;71.50
48210;BME280;33999;52.252;9.616;2022-09-19T14:55:03;100669.91;;;15.33;69.69
48210;BME280;33999;52.252;9.616;2022-09-19T14:58:32;100665.81;;;15.29;70.06
48210;BME280;33999;52.252;9.616;2022-09-19T15:01:35;100669.50;;;15.18;71.84
48210;BME280;33999;52.252;9.616;2022-09-19T15:04:39;100670.94;;;14.93;72.14
48210;BME280;33999;52.252;9.616;2022-09-19T15:07:41;100663.13;;;14.81;72.06
48210;BME280;33999;52.252;9.616;2022-09-19T15:10:43;100675.47;;;14.64;73.00
48210;BME280;33999;52.252;9.616;2022-09-19T15:13:46;100666.00;;;14.48;73.43
48210;BME280;33999;52.252;9.616;2022-09-19T15:17:09;100667.97;;;14.46;74.54
48210;BME280;33999;52.252;9.616;2022-09-19T15:20:15;100660.16;;;14.43;75.50
48210;BME280;33999;52.252;9.616;2022-09-19T15:23:17;100665.44;;;14.45;75.99
48210;BME280;33999;52.252;9.616;2022-09-19T15:26:20;100669.84;;;14.46;75.51
48210;BME280;33999;52.252;9.616;2022-09-19T15:29:28;100663.28;;;14.39;76.72
48210;BME280;33999;52.252;9.616;2022-09-19T15:32:38;100671.78;;;14.34;77.72
48210;BME280;33999;52.252;9.616;2022-09-19T15:35:43;100668.53;;;14.30;77.43
48210;BME280;33999;52.252;9.616;2022-09-19T15:38:45;100666.81;;;14.39;77.83
48210;BME280;33999;52.252;9.616;2022-09-19T15:41:48;100660.72;;;14.47;78.94
48210;BME280;33999;52.252;9.616;2022-09-19T15:44:51;100667.44;;;14.52;78.48
48210;BME280;33999;52.252;9.616;2022-09-19T15:48:08;100665.47;;;14.54;77.99
48210;BME280;33999;52.252;9.616;2022-09-19T15:51:25;100676.16;;;14.56;77.42
48210;BME280;33999;52.252;9.616;2022-09-19T15:54:29;100673.44;;;14.56;78.46
48210;BME280;33999;52.252;9.616;2022-09-19T15:57:46;100686.25;;;14.54;77.69
48210;BME280;33999;52.252;9.616;2022-09-19T16:00:49;100689.75;;;14.45;77.24
48210;BME280;33999;52.252;9.616;2022-09-19T16:06:58;100696.66;;;14.28;78.32
48210;BME280;33999;52.252;9.616;2022-09-19T16:10:21;100704.56;;;14.10;78.89
48210;BME280;33999;52.252;9.616;2022-09-19T16:13:43;100705.06;;;13.94;79.09
48210;BME280;33999;52.252;9.616;2022-09-19T16:16:46;100729.38;;;13.73;78.80
48210;BME280;33999;52.252;9.616;2022-09-19T16:19:55;100725.16;;;13.59;83.29
48210;BME280;33999;52.252;9.616;2022-09-19T16:26:02;100740.19;;;13.09;89.81
48210;BME280;33999;52.252;9.616;2022-09-19T16:29:04;100727.97;;;12.93;92.24
48210;BME280;33999;52.252;9.616;2022-09-19T16:32:12;100729.97;;;12.80;90.92
48210;BME280;33999;52.252;9.616;2022-09-19T16:35:18;100726.34;;;12.70;91.19
48210;BME280;33999;52.252;9.616;2022-09-19T16:38:24;100733.94;;;12.65;93.35
48210;BME280;33999;52.252;9.616;2022-09-19T16:41:32;100730.28;;;12.66;93.21
48210;BME280;33999;52.252;9.616;2022-09-19T16:47:50;100734.94;;;12.52;94.53
48210;BME280;33999;52.252;9.616;2022-09-19T16:50:51;100739.25;;;12.44;95.64
48210;BME280;33999;52.252;9.616;2022-09-19T16:53:53;100736.66;;;12.42;95.76
48210;BME280;33999;52.252;9.616;2022-09-19T16:56:54;100746.94;;;12.37;96.23
48210;BME280;33999;52.252;9.616;2022-09-19T16:59:56;100737.03;;;12.26;97.46
48210;BME280;33999;52.252;9.616;2022-09-19T17:02:58;100738.88;;;12.14;98.21
48210;BME280;33999;52.252;9.616;2022-09-19T17:06:00;100730.44;;;11.96;97.93
48210;BME280;33999;52.252;9.616;2022-09-19T17:09:03;100738.13;;;11.90;97.84
48210;BME280;33999;52.252;9.616;2022-09-19T17:12:05;100739.88;;;11.78;97.78
48210;BME280;33999;52.252;9.616;2022-09-19T17:18:30;100738.19;;;11.66;99.60
48210;BME280;33999;52.252;9.616;2022-09-19T17:21:31;100748.78;;;11.56;99.27
48210;BME280;33999;52.252;9.616;2022-09-19T17:24:33;100746.03;;;11.45;99.46
48210;BME280;33999;52.252;9.616;2022-09-19T17:27:35;100740.28;;;11.38;99.79
48210;BME280;33999;52.252;9.616;2022-09-19T17:30:36;100742.81;;;11.28;100.00
48210;BME280;33999;52.252;9.616;2022-09-19T17:33:38;100746.69;;;11.24;100.00
48210;BME280;33999;52.252;9.616;2022-09-19T17:36:40;100745.69;;;11.14;100.00
48210;BME280;33999;52.252;9.616;2022-09-19T17:39:41;100750.53;;;11.09;100.00
48210;BME280;33999;52.252;9.616;2022-09-19T17:42:43;100748.22;;;11.04;100.00
48210;BME280;33999;52.252;9.616;2022-09-19T17:45:46;100746.72;;;11.00;100.00
48210;BME280;33999;52.252;9.616;2022-09-19T17:48:51;100742.44;;;10.98;100.00
48210;BME280;33999;52.252;9.616;2022-09-19T17:51:53;100754.59;;;10.91;100.00
48210;BME280;33999;52.252;9.616;2022-09-19T17:54:55;100757.75;;;10.84;100.00
48210;BME280;33999;52.252;9.616;2022-09-19T17:57:57;100759.19;;;10.77;100.00
48210;BME280;33999;52.252;9.616;2022-09-19T18:00:59;100763.19;;;10.72;100.00
48210;BME280;33999;52.252;9.616;2022-09-19T18:04:21;100776.19;;;10.65;100.00
48210;BME280;33999;52.252;9.616;2022-09-19T18:07:23;100774.72;;;10.61;100.00
48210;BME280;33999;52.252;9.616;2022-09-19T18:10:31;100771.03;;;10.62;100.00
48210;BME280;33999;52.252;9.616;2022-09-19T18:13:33;100793.69;;;10.58;100.00
48210;BME280;33999;52.252;9.616;2022-09-19T18:16:38;100804.59;;;10.56;100.00
48210;BME280;33999;52.252;9.616;2022-09-19T18:19:41;100815.66;;;10.52;100.00
48210;BME280;33999;52.252;9.616;2022-09-19T18:22:50;100814.47;;;10.43;99.36
48210;BME280;33999;52.252;9.616;2022-09-19T18:25:55;100824.78;;;10.36;98.59
48210;BME280;33999;52.252;9.616;2022-09-19T18:29:00;100830.97;;;10.24;95.85
48210;BME280;33999;52.252;9.616;2022-09-19T18:32:04;100829.91;;;10.14;93.97
48210;BME280;33999;52.252;9.616;2022-09-19T18:35:07;100834.97;;;10.06;94.90
48210;BME280;33999;52.252;9.616;2022-09-19T18:38:49;100822.47;;;9.92;95.04
48210;BME280;33999;52.252;9.616;2022-09-19T18:42:48;100813.69;;;9.90;95.56
48210;BME280;33999;52.252;9.616;2022-09-19T18:46:07;100822.47;;;9.92;96.34
48210;BME280;33999;52.252;9.616;2022-09-19T18:49:24;100826.22;;;9.89;96.75
48210;BME280;33999;52.252;9.616;2022-09-19T18:53:07;100833.63;;;9.86;96.78
48210;BME280;33999;52.252;9.616;2022-09-19T18:56:17;100823.22;;;9.81;96.97
48210;BME280;33999;52.252;9.616;2022-09-19T18:59:28;100819.78;;;9.79;95.21
48210;BME280;33999;52.252;9.616;2022-09-19T19:02:56;100825.13;;;9.79;94.27
48210;BME280;33999;52.252;9.616;2022-09-19T19:06:02;100837.69;;;9.78;94.71